Hlavní strana
METAR-TAF:

METAR-TAF

Letiště :

Bloomington / Normal, Illinois, Spojené státy americké

zeměpisná šířka: 40-29N, zeměpisná délka: 088-55W, výška: 267 m

Aktuální stav počasí

Zpráva byla vytvořena před 40 minutami, v 22:56 UTC
Severní vítr 9 kt
Teplota -5°C
Vlhkost vzduchu 49%
Tlak 1038 hPa
Viditelnost: 16.1 km
Jasno

METAR: KBMI 202256Z 35009KT 10SM CLR M05/M14 A3066 RMK AO2 SLP397 T10501139

Čas: 17:36 (23:36 UTC)

Předpověď počasí

Zpráva byla vytvořena před 6 hodinami a 3 minutami, v 17:33 UTC
Předpověď platná od 20 v 18 UTC do 21 v 18 UTC
Severní vítr 12 kt
Viditelnost: 10 km
Jasno
Od 21 v 0100 UTC
vítr z různých směrů 4 kt
Viditelnost: 10 km
Jasno
Od 21 v 1400 UTC
Jihozápadní vítr 7 kt
Viditelnost: 10 km
Jasno

TAF: KBMI 201733Z 2018/2118 36012KT P6SM SKC FM210100 VRB04KT P6SM SKC FM211400 23007KT P6SM SKC

Stav a předpovědi počasí z více než 4 000 letišť (zprávy METAR a TAF).

Červené a žluté tečky na mapě představují dostupné meteorologické stanice.

Když kurzor umístíte na tečku, zobrazí se název stanice.

Pak kliknutím zobrazíte stav a předpověď počasí.

Chcete-li změnit mapu, kliknutím na zelené tlačítko se znaménkem +mapu přiblížíte, kliknutím na zelené tlačítko se znaménkem – mapu oddálíte a kliknutím na zelené šipky přejdete na sousední mapy.


METAR-TAF: